Estación Meteorológica Peña el Pijo (Robertgarden) [ 11/20/17 01:25:05 CET ]

Fecha Hora Presion(HPa) Temp (°C) Humedad % Rocio (°C) Viento ( m/s) Direccion Lluvia 1Hora(mm) Lluvia 24H(mm) LLuvia Total(mm)
2017-Nov-05 01:01:25 1007.600 9.9 84 7.3     0.51 1.03 1467.49
2017-Nov-05 02:01:46 1007.700 9.3 85 6.9     0.51 1.55 1468.01
2017-Nov-05 03:01:37 1007.900 8.9 86 6.7       1.55 1468.01
2017-Nov-05 04:03:51 1008.200 9.1 87 7.0       1.55 1468.01
2017-Nov-05 05:07:02 1008.000 8.6 87 6.6       1.55 1468.01
2017-Nov-05 06:01:38 1008.700 8.7 88 6.8       1.55 1468.01
2017-Nov-05 07:01:38 1008.900 9.1 88 7.2       1.55 1468.01
2017-Nov-05 08:01:31 1009.500 9.2 88 7.3       1.55 1468.01
2017-Nov-05 09:01:40 1010.200 10.9 89 9.1       1.55 1468.01
2017-Nov-05 10:01:34 1010.700 11.3 82 8.3       1.55 1468.01
2017-Nov-05 11:01:31 1010.900 14.6 68 8.7       1.55 1468.01
2017-Nov-05 12:01:43 1011.000 14.9 61 7.4       1.55 1468.01
2017-Nov-05 13:01:42 1010.600 15.5 54 6.2       1.55 1468.01
2017-Nov-05 14:01:33 1010.300 13.6 57 5.2       1.55 1468.01
2017-Nov-05 15:01:48 1010.500 14.9 55 5.9       1.55 1468.01
2017-Nov-05 16:02:01 1010.500 13.8 56 5.2       1.55 1468.01
2017-Nov-05 17:01:42 1011.000 12.8 57 4.4       1.55 1468.01
2017-Nov-05 18:01:19 1011.200 11.6 60 4.1       1.55 1468.01
2017-Nov-05 19:01:17 1011.500 10.1 61 3.0       1.03 1468.01
2017-Nov-05 20:02:10 1012.100 7.9 68 2.4       1.03 1468.01
2017-Nov-05 21:01:48 1012.300 6.9 72 2.2       1.03 1468.01
2017-Nov-05 22:01:53 1013.300 6.2 74 1.9       1.03 1468.01
2017-Nov-05 23:01:44 1013.600 4.4 77 0.7       1.03 1468.01

Temperatura Máxima:15°    Temperatura Mínima:
Presión Máxima:1013.600 Hpa    Presión Mínima:1007.600 Hpa


Volver